Time;durP1;ratioP1;P1;durP2;ratioP2;P2;SDS_P1;SDS_P2;PMS_P1;PMS_P2;Temp;Humidity;BMP_temperature;BMP_pressure;BME280_temperature;BME280_humidity;BME280_pressure;Samples;Min_cycle;Max_cycle;Signal;HPM_P1;HPM_P2
2022/06/02 00:01:49;;;;;;;3.42;3.22;;;14.90;99.90;;;15.75;69.43;98009.66;5178585;28;20193;-56
2022/06/02 00:04:32;;;;;;;3.80;3.50;;;14.90;99.90;;;15.80;68.20;98007.25;5221363;28;20201;-52
2022/06/02 00:07:11;;;;;;;3.40;3.20;;;14.90;99.90;;;15.73;68.14;98019.00;5223501;28;20225;-55
2022/06/02 00:10:02;;;;;;;3.20;3.00;;;14.90;99.90;;;15.72;67.58;98019.84;5215582;28;20236;-53
2022/06/02 00:12:47;;;;;;;3.35;3.15;;;14.80;99.90;;;15.70;67.50;98033.47;5218222;28;20568;-52
2022/06/02 00:15:26;;;;;;;3.42;3.22;;;14.80;99.90;;;15.67;68.71;98029.03;5215927;28;20201;-53
2022/06/02 00:18:07;;;;;;;3.53;3.22;;;14.90;99.90;;;15.67;68.51;98039.34;5214215;28;20772;-52
2022/06/02 00:20:53;;;;;;;3.45;3.25;;;14.80;99.90;;;15.64;69.25;98034.09;5216330;28;20725;-54
2022/06/02 00:23:45;;;;;;;3.22;2.90;;;14.80;99.90;;;15.62;68.69;98038.28;5210461;28;20224;-56
2022/06/02 00:26:38;;;;;;;3.05;2.85;;;14.80;99.90;;;15.63;69.50;98037.50;5213180;28;20245;-56
2022/06/02 00:29:23;;;;;;;3.40;3.20;;;14.80;99.90;;;15.63;69.72;98028.88;5221873;28;20724;-55
2022/06/02 00:32:04;;;;;;;3.30;3.05;;;14.80;99.90;;;15.61;69.43;98031.38;5212253;28;20275;-57
2022/06/02 00:34:47;;;;;;;3.60;3.40;;;14.90;99.90;;;15.62;70.05;98025.41;5219948;28;20209;-56
2022/06/02 00:37:33;;;;;;;3.92;3.63;;;14.80;99.90;;;15.59;70.67;98030.44;5215883;28;20631;-57
2022/06/02 00:40:09;;;;;;;3.20;3.00;;;14.80;99.90;;;15.60;70.29;98032.22;5216760;28;20251;-56
2022/06/02 00:42:56;;;;;;;3.70;3.50;;;14.80;99.90;;;15.57;69.76;98024.38;5218556;28;20240;-56
2022/06/02 00:45:30;;;;;;;3.40;3.20;;;14.70;99.90;;;15.59;70.53;98021.84;5216454;28;20233;-55
2022/06/02 00:48:14;;;;;;;3.67;3.47;;;14.70;99.90;;;15.65;69.31;98022.97;5208528;28;20634;-56
2022/06/02 00:50:58;;;;;;;3.17;3.05;;;14.70;99.90;;;15.55;71.24;98018.25;5212759;28;20202;-57
2022/06/02 00:53:42;;;;;;;3.20;3.00;;;14.70;99.90;;;15.52;70.57;98015.56;5215732;28;20235;-55
2022/06/02 00:59:33;;;;;;;3.70;3.53;;;14.70;99.90;;;15.48;70.52;98024.88;5219612;28;20201;-53
2022/06/02 01:02:06;;;;;;;4.20;4.00;;;14.60;99.90;;;15.40;71.57;98026.25;5212863;28;20237;-53
2022/06/02 01:04:43;;;;;;;3.67;3.47;;;14.50;99.90;;;15.36;71.36;98028.63;5211169;28;20248;-54
2022/06/02 01:07:36;;;;;;;4.45;4.05;;;14.50;99.90;;;15.38;71.87;98032.16;5210888;28;20697;-55
2022/06/02 01:10:35;;;;;;;3.67;3.47;;;14.50;99.90;;;15.39;71.18;98031.34;5218184;28;20201;-56
2022/06/02 01:13:49;;;;;;;3.75;3.45;;;14.40;99.90;;;15.35;71.29;98027.75;5214514;28;20210;-55
2022/06/02 01:16:33;;;;;;;3.53;3.30;;;14.40;99.90;;;15.30;71.82;98035.28;5214223;28;20288;-56
2022/06/02 01:19:56;;;;;;;3.85;3.55;;;14.40;99.90;;;15.18;72.77;98039.94;5214992;28;20221;-55
2022/06/02 01:23:06;;;;;;;4.32;4.03;;;14.30;99.90;;;15.14;72.66;98042.31;5215696;28;20241;-51
2022/06/02 01:26:42;;;;;;;3.90;3.60;;;14.20;99.90;;;15.17;72.62;98038.19;5212628;28;20231;-55
2022/06/02 01:30:07;;;;;;;3.90;3.70;;;14.30;99.90;;;15.07;73.37;98031.75;5158557;28;20652;-55
2022/06/02 01:32:56;;;;;;;4.07;3.75;;;14.30;99.90;;;15.12;72.32;98039.69;5201480;28;20814;-55
2022/06/02 01:35:41;;;;;;;4.00;3.70;;;14.20;99.90;;;15.05;72.32;98045.38;5213453;28;20664;-53
2022/06/02 01:38:21;;;;;;;4.20;3.90;;;14.20;99.90;;;15.01;72.97;98046.06;5215531;28;20249;-55
2022/06/02 01:41:08;;;;;;;3.90;3.60;;;14.10;99.90;;;14.94;72.62;98054.34;5216836;28;20272;-55
2022/06/02 01:43:51;;;;;;;4.10;3.75;;;14.10;99.90;;;14.87;72.81;98048.91;5218323;28;20228;-56
2022/06/02 01:46:48;;;;;;;3.92;3.63;;;14.00;99.90;;;14.75;71.85;98058.69;5214082;28;20335;-56
2022/06/02 01:49:49;;;;;;;3.78;3.50;;;13.90;99.90;;;14.69;72.41;98068.72;5213851;28;20203;-56
2022/06/02 01:52:42;;;;;;;3.78;3.58;;;13.80;99.90;;;14.72;72.70;98068.84;5214947;28;20296;-56
2022/06/02 01:55:41;;;;;;;3.72;3.42;;;13.90;99.90;;;14.60;71.79;98068.31;5209714;28;20293;-55
2022/06/02 01:58:32;;;;;;;3.70;3.40;;;13.70;99.90;;;14.56;73.82;98071.53;5214435;28;20260;-55
2022/06/02 02:01:13;;;;;;;4.20;3.80;;;13.70;99.90;;;14.54;73.18;98068.03;5216906;28;20201;-56
2022/06/02 02:03:57;;;;;;;3.92;3.63;;;13.70;99.90;;;14.46;73.94;98079.66;5216798;28;20645;-56
2022/06/02 02:06:43;;;;;;;4.00;3.70;;;13.60;99.90;;;14.41;74.46;98085.44;5219179;28;20240;-52
2022/06/02 02:09:25;;;;;;;3.95;3.75;;;13.50;99.90;;;14.39;74.83;98084.50;5223524;28;20216;-55
2022/06/02 02:12:01;;;;;;;4.20;3.90;;;13.60;99.90;;;14.38;74.76;98098.16;5221470;28;20233;-54
2022/06/02 02:14:52;;;;;;;3.88;3.60;;;13.50;99.90;;;14.32;74.88;98091.88;5215935;28;20200;-52
2022/06/02 02:17:51;;;;;;;3.85;3.55;;;13.50;99.90;;;14.30;74.12;98094.34;5216262;28;20282;-55
2022/06/02 02:20:33;;;;;;;3.67;3.42;;;13.40;99.90;;;14.28;74.10;98096.00;5208152;28;20661;-55
2022/06/02 02:23:18;;;;;;;4.25;3.92;;;13.40;99.90;;;14.25;72.10;98095.84;5218291;28;20237;-56
2022/06/02 02:25:55;;;;;;;3.55;3.35;;;13.40;99.90;;;14.22;72.90;98094.81;5213808;28;20275;-56
2022/06/02 02:28:50;;;;;;;4.03;3.83;;;13.30;99.90;;;14.32;72.87;98108.16;5210438;28;20229;-54
2022/06/02 02:31:37;;;;;;;3.53;3.33;;;13.40;99.90;;;14.11;74.06;98094.34;5214075;28;20201;-55
2022/06/02 02:34:26;;;;;;;4.22;4.03;;;13.20;99.90;;;14.08;74.44;98092.50;5215434;28;20201;-55
2022/06/02 02:37:07;;;;;;;3.92;3.72;;;13.30;99.90;;;14.01;73.63;98099.84;5214240;28;20213;-56
2022/06/02 02:39:52;;;;;;;3.60;3.40;;;13.20;99.90;;;14.07;73.44;98095.84;5214146;28;20221;-57
2022/06/02 02:42:32;;;;;;;3.78;3.47;;;13.20;99.90;;;14.10;73.64;98096.00;5213845;28;20225;-55
2022/06/02 02:45:21;;;;;;;4.00;3.70;;;13.30;99.90;;;14.18;73.00;98093.78;5214039;28;20271;-57
2022/06/02 02:48:06;;;;;;;3.78;3.58;;;13.40;99.90;;;14.28;72.32;98088.28;5209992;28;20256;-55
2022/06/02 02:50:46;;;;;;;3.75;3.55;;;13.50;99.90;;;14.26;73.05;98089.91;5213280;28;20213;-53
2022/06/02 02:53:25;;;;;;;3.08;2.88;;;13.50;99.90;;;14.31;72.39;98092.69;5215090;28;20640;-54
2022/06/02 02:56:07;;;;;;;3.90;3.60;;;13.50;99.90;;;14.29;73.15;98097.75;5221224;28;20271;-54
2022/06/02 02:58:45;;;;;;;4.35;4.05;;;13.50;99.90;;;14.36;72.76;98104.91;5210017;28;20255;-53
2022/06/02 03:01:26;;;;;;;4.00;3.70;;;13.50;99.90;;;14.36;74.51;98102.34;5217362;28;20240;-56
2022/06/02 03:04:16;;;;;;;3.78;3.45;;;13.50;99.90;;;14.30;74.69;98103.75;5216590;28;20197;-54
2022/06/02 03:06:54;;;;;;;4.32;4.03;;;13.40;99.90;;;14.23;74.41;98106.88;5212120;28;20299;-53
2022/06/02 03:09:39;;;;;;;3.72;3.53;;;13.40;99.90;;;14.18;74.64;98091.22;5217423;28;20225;-57
2022/06/02 03:12:24;;;;;;;3.90;3.50;;;13.30;99.90;;;14.17;74.58;98097.19;5214629;28;20226;-57
2022/06/02 03:15:19;;;;;;;3.88;3.63;;;13.30;99.90;;;14.17;75.62;98102.31;5219561;28;20664;-55
2022/06/02 03:18:19;;;;;;;3.53;3.25;;;13.40;99.90;;;14.18;75.81;98106.66;5223583;28;20225;-55
2022/06/02 03:20:59;;;;;;;3.80;3.60;;;13.40;99.90;;;14.12;76.12;98109.81;5218254;28;20293;-56
2022/06/02 03:24:12;;;;;;;3.92;3.67;;;13.30;99.90;;;14.13;75.33;98114.13;5222600;28;20194;-53
2022/06/02 03:26:57;;;;;;;3.85;3.65;;;13.30;99.90;;;14.11;75.68;98112.31;5217811;28;20307;-55
2022/06/02 03:29:46;;;;;;;4.43;3.78;;;13.30;99.90;;;14.04;75.05;98110.25;5218665;28;20197;-56
2022/06/02 03:32:41;;;;;;;3.90;3.60;;;13.20;99.90;;;14.10;75.12;98113.13;5222177;28;20237;-55
2022/06/02 03:35:26;;;;;;;3.67;3.47;;;13.20;99.90;;;14.10;75.35;98111.41;5219846;28;20817;-54
2022/06/02 03:38:14;;;;;;;3.90;3.60;;;13.20;99.90;;;14.10;75.82;98120.81;5222011;28;20245;-51
2022/06/02 03:41:12;;;;;;;3.53;3.30;;;13.30;99.90;;;14.06;76.65;98114.66;5220028;28;20320;-50
2022/06/02 03:43:53;;;;;;;3.40;3.20;;;13.30;99.90;;;14.10;75.02;98120.81;5219644;28;20336;-57
2022/06/02 03:46:48;;;;;;;3.60;3.40;;;13.30;99.90;;;14.07;75.15;98125.81;5216501;28;20197;-55
2022/06/02 03:49:53;;;;;;;3.10;2.90;;;13.20;99.90;;;14.07;73.47;98124.13;5214680;28;20225;-54
2022/06/02 03:52:59;;;;;;;3.72;3.53;;;13.20;99.90;;;14.10;73.63;98131.97;5218884;28;20200;-58
2022/06/02 03:55:47;;;;;;;3.92;3.63;;;13.30;99.90;;;14.09;73.54;98129.34;5208869;28;20285;-56
2022/06/02 03:58:40;;;;;;;5.63;5.00;;;13.20;99.90;;;14.12;74.23;98130.38;5221491;28;20241;-56
2022/06/02 04:01:19;;;;;;;5.07;4.55;;;13.30;99.90;;;14.18;73.81;98129.78;5220049;28;20745;-54
2022/06/02 04:04:09;;;;;;;4.38;4.07;;;13.40;99.90;;;14.22;73.86;98130.81;5216946;28;20189;-54
2022/06/02 04:07:08;;;;;;;4.00;3.70;;;13.40;99.90;;;14.22;75.66;98141.97;5217430;28;20712;-55
2022/06/02 04:09:50;;;;;;;4.07;3.78;;;13.40;99.90;;;14.20;74.83;98141.91;5219005;28;20782;-55
2022/06/02 04:16:24;;;;;;;3.88;3.58;;;13.40;99.90;;;14.25;75.85;98137.00;5213954;28;20200;-55
2022/06/02 04:22:35;;;;;;;4.35;3.60;;;13.50;99.90;;;14.34;73.70;98142.56;5220306;28;20616;-56
2022/06/02 04:25:24;;;;;;;3.75;3.47;;;13.50;99.90;;;14.35;74.27;98148.56;5213655;28;20201;-56
2022/06/02 04:28:07;;;;;;;3.83;3.63;;;13.50;99.90;;;14.34;72.95;98150.28;5214645;28;20406;-57
2022/06/02 04:30:52;;;;;;;4.35;4.00;;;13.50;99.90;;;14.36;74.22;98145.19;5216498;28;20212;-57
2022/06/02 04:33:33;;;;;;;3.58;3.28;;;13.50;99.90;;;14.47;73.54;98145.69;5215265;28;20233;-58
2022/06/02 04:36:21;;;;;;;3.65;3.35;;;13.60;99.90;;;14.40;73.28;98142.84;5217190;28;20275;-57
2022/06/02 04:39:04;;;;;;;3.75;3.55;;;13.50;99.90;;;14.51;73.41;98145.03;5217517;28;20287;-50
2022/06/02 04:41:49;;;;;;;3.75;3.38;;;13.60;99.90;;;14.72;72.08;98148.63;5217649;28;20247;-56
2022/06/02 04:44:34;;;;;;;3.95;3.65;;;13.80;99.90;;;15.02;70.37;98151.69;5214101;28;21023;-54
2022/06/02 04:47:19;;;;;;;3.70;3.40;;;14.00;99.90;;;15.19;67.97;98144.69;5216996;28;20221;-53
2022/06/02 04:50:00;;;;;;;2.88;2.70;;;14.10;99.90;;;15.30;66.70;98155.47;5215265;28;20202;-52
2022/06/02 04:52:49;;;;;;;3.58;2.85;;;14.20;99.90;;;15.47;65.92;98148.44;5218391;28;20228;-55
2022/06/02 04:55:35;;;;;;;3.50;3.30;;;14.40;99.90;;;15.71;65.22;98140.94;5219033;28;20220;-55
2022/06/02 04:58:22;;;;;;;3.97;3.58;;;14.60;99.90;;;15.97;64.85;98144.56;5224049;28;20217;-55
2022/06/02 05:01:05;;;;;;;3.30;2.97;;;14.90;99.90;;;16.56;62.64;98133.09;5219860;28;20202;-51
2022/06/02 05:03:47;;;;;;;2.88;2.65;;;15.60;99.90;;;17.13;60.73;98148.13;5212567;28;20247;-56
2022/06/02 05:06:31;;;;;;;3.63;3.00;;;16.00;99.90;;;17.53;57.42;98147.81;5214753;28;20616;-56
2022/06/02 05:09:14;;;;;;;3.10;2.90;;;16.50;98.90;;;17.64;56.38;98148.19;5221696;28;20217;-58
2022/06/02 05:12:01;;;;;;;3.42;3.13;;;16.40;98.30;;;17.68;55.66;98156.94;5218769;28;20239;-58
2022/06/02 05:14:40;;;;;;;3.42;3.05;;;16.30;97.80;;;17.83;55.72;98147.16;5226977;28;20225;-55
2022/06/02 05:17:43;;;;;;;3.33;3.13;;;16.60;97.70;;;18.28;54.55;98141.66;5218495;28;20227;-53
2022/06/02 05:21:00;;;;;;;5.07;3.28;;;17.00;96.80;;;18.77;51.82;98158.75;5217024;28;20225;-58
2022/06/02 05:24:22;;;;;;;4.07;3.30;;;17.50;95.10;;;18.95;52.00;98165.31;5222551;28;20235;-55
2022/06/02 05:27:39;;;;;;;4.25;3.30;;;17.50;95.80;;;19.52;49.97;98175.53;5191091;28;20244;-55
2022/06/02 05:30:56;;;;;;;3.28;2.97;;;17.90;94.30;;;19.95;47.63;98176.69;5168692;28;20369;-56
2022/06/02 05:34:16;;;;;;;2.60;2.40;;;18.40;92.90;;;20.12;46.56;98171.91;5218103;28;20252;-54
2022/06/02 05:37:07;;;;;;;3.00;2.80;;;18.60;91.40;;;20.27;44.73;98184.38;5213530;28;20249;-55
2022/06/02 05:40:00;;;;;;;2.95;2.35;;;18.80;90.60;;;20.84;44.39;98186.59;5212006;28;20220;-54
2022/06/02 05:42:50;;;;;;;2.55;2.35;;;19.10;90.60;;;21.14;43.53;98183.72;5213187;28;20201;-54
2022/06/02 05:45:50;;;;;;;2.65;2.40;;;19.20;90.40;;;21.16;43.11;98179.44;5217150;28;20665;-53
2022/06/02 05:48:38;;;;;;;2.60;2.40;;;19.30;89.00;;;21.22;43.40;98187.38;5212176;28;20272;-56
2022/06/02 05:51:20;;;;;;;2.60;2.40;;;19.40;89.20;;;21.67;41.91;98180.47;5216992;28;20283;-56
2022/06/02 05:54:12;;;;;;;2.80;2.60;;;19.50;88.20;;;21.71;41.03;98184.88;5217165;28;20296;-55
2022/06/02 05:57:00;;;;;;;2.75;2.25;;;19.80;86.60;;;21.85;41.40;98179.91;5214485;28;20247;-55
2022/06/02 06:00:03;;;;;;;3.22;2.58;;;19.80;87.80;;;21.79;41.81;98186.75;5219523;28;20240;-53
2022/06/02 06:03:07;;;;;;;2.55;2.35;;;19.80;87.30;;;22.04;40.84;98180.25;5211742;28;20235;-52
2022/06/02 06:05:45;;;;;;;2.78;2.58;;;19.90;86.60;;;22.20;40.35;98185.75;5215586;28;20239;-54
2022/06/02 06:08:46;;;;;;;4.10;2.90;;;20.20;85.00;;;22.61;39.04;98175.09;5220479;28;20229;-57
2022/06/02 06:11:36;;;;;;;2.38;2.28;;;20.10;84.50;;;22.32;40.40;98179.84;5216876;28;20220;-56
2022/06/02 06:14:20;;;;;;;2.67;2.47;;;20.10;86.50;;;22.80;39.00;98184.91;5217556;28;20311;-57
2022/06/02 06:17:07;;;;;;;2.63;2.20;;;20.20;85.00;;;23.06;37.71;98190.50;5209992;28;20233;-56
2022/06/02 06:19:52;;;;;;;3.00;2.47;;;20.60;82.50;;;23.28;37.21;98183.81;5216806;28;20201;-57
2022/06/02 06:22:45;;;;;;;2.50;2.30;;;20.60;82.20;;;23.49;36.33;98183.19;5212306;28;20225;-57
2022/06/02 06:25:40;;;;;;;2.40;2.20;;;20.60;80.90;;;23.55;37.17;98174.53;5217796;28;20202;-57
2022/06/02 06:28:17;;;;;;;2.53;2.00;;;20.60;83.10;;;23.96;35.99;98176.75;5214649;28;20225;-56
2022/06/02 06:31:03;;;;;;;2.33;1.95;;;21.30;80.30;;;24.28;35.07;98190.94;5213894;28;20681;-57
2022/06/02 06:33:54;;;;;;;2.17;1.90;;;21.50;78.50;;;24.11;34.64;98189.06;5211307;28;20666;-55
2022/06/02 06:37:08;;;;;;;2.08;1.98;;;21.80;77.20;;;24.78;34.12;98186.06;5215566;28;20677;-54
2022/06/02 06:39:55;;;;;;;2.30;1.92;;;22.20;76.10;;;24.91;32.83;98185.28;5214892;28;20229;-53
2022/06/02 06:42:42;;;;;;;2.20;2.00;;;22.20;74.60;;;24.56;33.87;98185.09;5210122;28;20361;-56
2022/06/02 06:45:19;;;;;;;2.25;2.00;;;22.20;74.80;;;25.23;32.91;98187.19;5220650;28;20193;-58
2022/06/02 06:48:01;;;;;;;1.63;1.52;;;22.70;73.70;;;25.19;31.46;98185.44;5219808;28;20304;-52
2022/06/02 06:50:45;;;;;;;1.85;1.75;;;23.00;71.00;;;25.28;32.37;98194.19;5222198;28;20282;-54
2022/06/02 06:53:33;;;;;;;1.65;1.55;;;23.20;72.20;;;25.54;31.94;98188.19;5222423;28;20697;-54
2022/06/02 06:56:16;;;;;;;2.00;1.80;;;23.00;72.10;;;25.33;33.00;98200.34;5223427;28;20205;-58
2022/06/02 06:59:09;;;;;;;2.22;1.70;;;23.00;72.60;;;24.79;32.54;98191.31;5221990;28;20274;-56
2022/06/02 07:01:51;;;;;;;2.05;1.80;;;22.80;71.70;;;25.02;31.14;98195.81;5221521;28;20247;-57
2022/06/02 07:04:38;;;;;;;2.55;1.65;;;22.90;69.70;;;24.88;32.43;98191.38;5216402;28;20212;-57
2022/06/02 07:07:19;;;;;;;2.72;1.85;;;22.90;70.80;;;25.00;32.16;98182.69;5219344;28;20228;-57
2022/06/02 07:10:04;;;;;;;2.10;1.90;;;23.00;69.80;;;25.06;32.05;98181.84;5217371;28;20209;-58
2022/06/02 07:12:52;;;;;;;3.15;2.00;;;23.40;69.60;;;25.73;31.42;98189.13;5217879;28;20236;-56
2022/06/02 07:15:44;;;;;;;3.63;1.88;;;23.40;69.70;;;25.44;32.07;98184.69;5222644;28;20242;-57
2022/06/02 07:18:34;;;;;;;2.25;1.77;;;23.40;69.60;;;25.47;31.38;98184.69;5216883;28;20213;-57
2022/06/02 07:21:26;;;;;;;2.15;1.70;;;23.60;68.30;;;25.98;31.51;98183.06;5215595;28;20265;-57
2022/06/02 07:24:26;;;;;;;2.83;2.13;;;23.80;69.10;;;25.91;30.92;98193.53;5216208;28;20193;-58
2022/06/02 07:27:06;;;;;;;2.95;2.00;;;23.70;68.50;;;25.75;31.53;98189.97;5216681;28;20214;-57
2022/06/02 07:29:56;;;;;;;1.80;1.70;;;23.70;69.50;;;25.68;32.27;98185.59;5218824;28;20205;-56
2022/06/02 07:33:13;;;;;;;1.98;1.70;;;23.90;69.70;;;26.18;30.16;98190.03;5219187;28;20270;-57
2022/06/02 07:36:22;;;;;;;2.30;1.75;;;24.00;67.90;;;25.99;30.58;98183.94;5218288;28;20270;-57
2022/06/02 07:39:23;;;;;;;1.60;1.50;;;23.80;67.50;;;25.30;31.13;98187.25;5218390;28;20708;-57
2022/06/02 07:42:20;;;;;;;2.22;1.50;;;23.50;68.00;;;25.53;31.68;98182.06;5219640;28;20232;-58
2022/06/02 07:45:32;;;;;;;1.98;1.77;;;23.50;68.80;;;25.62;31.41;98179.47;5222700;28;20239;-58
2022/06/02 07:48:55;;;;;;;1.75;1.58;;;23.50;67.50;;;26.27;30.09;98175.22;5217195;28;20714;-57
2022/06/02 07:51:37;;;;;;;2.10;1.90;;;24.00;66.20;;;26.29;29.82;98180.44;5219521;28;20240;-58
2022/06/02 07:54:27;;;;;;;1.55;1.45;;;23.60;67.40;;;25.96;30.73;98181.31;5216220;28;20228;-56
2022/06/02 07:57:15;;;;;;;2.47;1.77;;;23.90;66.70;;;26.89;29.17;98181.22;5219468;28;20213;-58
2022/06/02 08:00:10;;;;;;;2.00;1.70;;;24.20;66.70;;;27.35;28.58;98180.22;5220466;28;20702;-58
2022/06/02 08:03:15;;;;;;;1.80;1.70;;;24.60;65.40;;;27.28;29.27;98184.63;5217422;28;20224;-58
2022/06/02 08:05:55;;;;;;;1.85;1.60;;;24.70;65.90;;;27.10;27.03;98187.28;5213836;28;20208;-58
2022/06/02 08:08:39;;;;;;;1.60;1.50;;;24.90;60.50;;;26.99;27.14;98181.22;5220562;28;20657;-55
2022/06/02 08:11:28;;;;;;;2.97;1.60;;;24.70;62.00;;;27.06;28.09;98181.19;5217460;28;20871;-58
2022/06/02 08:14:13;;;;;;;2.08;1.52;;;24.60;62.80;;;27.04;28.20;98179.44;5216992;28;20304;-56
2022/06/02 08:16:55;;;;;;;2.30;1.38;;;24.80;62.60;;;27.26;27.49;98180.28;5213174;28;20333;-58
2022/06/02 08:19:42;;;;;;;2.25;1.50;;;25.00;62.00;;;26.69;28.97;98185.66;5217375;28;20213;-57
2022/06/02 08:22:25;;;;;;;1.50;1.40;;;24.70;63.10;;;26.51;28.02;98190.06;5216909;28;20263;-58
2022/06/02 08:25:11;;;;;;;1.67;1.33;;;24.70;60.70;;;26.20;29.62;98177.81;5216112;28;20232;-57
2022/06/02 08:28:37;;;;;;;1.70;1.60;;;24.90;63.20;;;26.40;29.92;98186.53;5216935;28;20255;-57
2022/06/02 08:31:32;;;;;;;1.73;1.60;;;25.10;62.70;;;26.68;29.25;98182.16;5216391;28;20236;-55
2022/06/02 08:34:15;;;;;;;2.05;1.38;;;25.30;62.90;;;26.61;29.02;98184.81;5218764;28;20208;-58
2022/06/02 08:36:58;;;;;;;2.72;1.50;;;25.20;61.50;;;25.96;30.04;98176.06;5214407;28;20259;-57
2022/06/02 08:40:02;;;;;;;1.58;1.48;;;24.70;63.10;;;25.18;30.66;98181.94;5217895;28;20198;-58
2022/06/02 08:43:28;;;;;;;2.33;1.70;;;24.80;61.50;;;25.48;31.29;98183.81;5221228;28;20196;-57
2022/06/02 08:46:37;;;;;;;1.60;1.50;;;24.50;63.50;;;25.55;31.08;98177.72;5219298;28;20193;-55
2022/06/02 08:49:40;;;;;;;1.80;1.70;;;24.70;62.70;;;25.70;30.81;98181.25;5221164;28;20657;-56
2022/06/02 08:53:03;;;;;;;1.88;1.60;;;24.80;63.80;;;25.69;30.14;98184.72;5218025;28;20193;-55
2022/06/02 08:56:07;;;;;;;1.95;1.60;;;24.90;61.40;;;25.80;29.96;98188.22;5216505;28;20205;-56
2022/06/02 08:59:50;;;;;;;1.48;1.38;;;24.90;60.90;;;26.04;29.98;98188.31;5214862;28;20267;-58
2022/06/02 09:03:04;;;;;;;1.33;1.23;;;25.10;62.70;;;26.13;29.13;98191.81;5217309;28;20276;-56
2022/06/02 09:06:29;;;;;;;1.67;1.58;;;25.50;61.20;;;25.68;29.54;98186.47;5216042;28;20584;-54
2022/06/02 09:09:40;;;;;;;2.15;1.67;;;25.30;61.30;;;25.46;30.17;98188.16;5217077;28;21229;-57
2022/06/02 09:12:30;;;;;;;2.08;1.85;;;24.60;62.00;;;25.32;31.25;98185.47;5216615;28;20229;-57
2022/06/02 09:15:24;;;;;;;2.50;1.48;;;24.60;62.60;;;25.28;31.54;98194.19;5218283;28;20201;-56
2022/06/02 09:18:17;;;;;;;2.80;1.65;;;24.50;63.90;;;25.50;30.84;98184.69;5217313;28;20251;-57
2022/06/02 09:20:57;;;;;;;2.15;1.45;;;24.80;62.10;;;25.71;30.73;98188.22;5215342;28;20256;-55
2022/06/02 09:23:49;;;;;;;3.35;1.77;;;25.10;62.70;;;25.74;30.92;98183.00;5216942;28;20189;-55
2022/06/02 09:26:57;;;;;;;1.70;1.60;;;24.90;62.30;;;25.59;30.77;98184.72;5218051;28;20224;-58
2022/06/02 09:29:43;;;;;;;2.20;1.73;;;24.70;61.60;;;25.09;30.29;98190.59;5216949;28;20197;-57
2022/06/02 09:32:36;;;;;;;3.17;2.10;;;24.20;61.70;;;25.33;30.63;98192.47;5216743;28;20202;-59
2022/06/02 09:35:19;;;;;;;2.05;1.67;;;24.40;62.00;;;25.26;30.96;98195.94;5219985;28;20221;-59
2022/06/02 09:38:41;;;;;;;2.35;1.63;;;24.50;63.00;;;25.40;31.86;98193.38;5220479;28;20654;-58
2022/06/02 09:41:43;;;;;;;3.97;1.90;;;24.50;63.60;;;25.53;30.98;98184.69;5215040;28;20601;-60
2022/06/02 09:44:26;;;;;;;2.42;1.80;;;24.90;62.00;;;25.81;31.12;98182.13;5216375;28;20299;-56
2022/06/02 09:47:43;;;;;;;1.70;1.60;;;25.10;62.90;;;25.77;31.62;98180.38;5219493;28;20604;-58
2022/06/02 09:50:39;;;;;;;1.60;1.50;;;25.30;62.30;;;25.78;30.41;98182.09;5219275;28;20257;-53
2022/06/02 09:53:54;;;;;;;2.20;1.42;;;25.00;61.60;;;25.70;32.33;98187.34;5216620;28;20232;-58
2022/06/02 10:00:20;;;;;;;1.90;1.70;;;25.10;63.80;;;25.06;32.36;98190.56;5213746;28;20202;-52
2022/06/02 10:03:12;;;;;;;1.92;1.83;;;24.50;63.80;;;25.29;31.86;98200.31;5214618;28;20288;-58
2022/06/02 10:06:12;;;;;;;1.92;1.77;;;24.50;63.80;;;24.87;33.47;98188.75;5209353;28;20209;-55
2022/06/02 10:09:07;;;;;;;1.83;1.73;;;24.30;65.80;;;25.17;31.78;98191.53;5217659;28;20223;-54
2022/06/02 10:11:56;;;;;;;2.35;1.75;;;24.50;63.20;;;25.19;32.34;98182.84;5218366;28;20649;-55
2022/06/02 10:14:56;;;;;;;3.50;2.25;;;24.50;65.00;;;25.43;32.45;98182.91;5214015;28;20736;-56
2022/06/02 10:17:57;;;;;;;1.98;1.75;;;24.70;64.90;;;25.51;31.87;98175.94;5215529;28;20794;-59
2022/06/02 10:21:06;;;;;;;1.80;1.70;;;24.90;62.90;;;25.58;32.22;98171.59;5216061;28;20201;-58
2022/06/02 10:24:34;;;;;;;1.80;1.70;;;24.80;63.90;;;25.67;32.10;98170.75;5207063;28;20672;-55
2022/06/02 10:27:55;;;;;;;1.98;1.80;;;25.00;63.50;;;25.49;33.57;98161.97;5218899;28;20228;-52
2022/06/02 10:30:54;;;;;;;2.00;1.80;;;24.80;66.10;;;25.41;33.07;98150.63;5220923;28;20256;-55
2022/06/02 10:34:12;;;;;;;2.05;1.95;;;24.80;65.20;;;25.20;33.19;98153.19;5214631;28;20292;-53
2022/06/02 10:37:32;;;;;;;1.92;1.70;;;24.40;66.00;;;25.30;32.49;98147.97;5218847;28;20267;-51
2022/06/02 10:40:19;;;;;;;2.33;1.90;;;24.40;65.50;;;25.19;33.34;98148.81;5175542;28;20270;-54
2022/06/02 10:43:45;;;;;;;1.80;1.70;;;24.30;66.50;;;25.40;31.44;98143.63;5215086;28;20232;-56
2022/06/02 10:47:13;;;;;;;2.78;1.58;;;24.50;63.30;;;25.46;32.42;98146.25;5218838;28;20580;-56
2022/06/02 10:49:57;;;;;;;2.20;2.00;;;24.60;65.40;;;25.45;32.65;98148.91;5218407;28;20208;-57
2022/06/02 10:53:16;;;;;;;2.03;1.80;;;24.60;64.60;;;25.37;32.63;98147.13;5220847;28;20239;-57
2022/06/02 10:56:46;;;;;;;2.50;1.88;;;24.50;64.40;;;25.30;32.75;98147.13;5216232;28;20280;-56
2022/06/02 11:00:04;;;;;;;2.33;1.83;;;24.50;64.80;;;25.12;32.99;98140.91;5213124;28;20229;-57
2022/06/02 11:03:41;;;;;;;2.30;2.00;;;24.40;66.30;;;24.86;33.46;98139.91;5218264;28;20255;-55
2022/06/02 11:07:36;;;;;;;2.42;2.00;;;24.00;65.60;;;24.83;34.31;98134.66;5217870;28;20197;-57
2022/06/02 11:10:34;;;;;;;2.25;2.00;;;23.90;67.10;;;25.13;34.21;98142.66;5220274;28;20287;-56
2022/06/02 11:13:51;;;;;;;2.22;2.03;;;24.40;67.50;;;24.97;32.86;98138.22;5220239;28;20233;-56
2022/06/02 11:17:04;;;;;;;2.35;2.25;;;24.60;64.70;;;24.61;33.40;98144.13;5198825;28;20237;-59
2022/06/02 11:20:20;;;;;;;2.08;1.98;;;24.00;66.20;;;24.82;33.65;98136.41;5217978;28;20197;-59
2022/06/02 11:23:33;;;;;;;2.17;2.05;;;24.00;65.60;;;24.68;34.31;98133.72;5217049;28;20209;-58
2022/06/02 11:27:11;;;;;;;2.08;1.98;;;24.00;66.90;;;24.53;37.04;98114.50;5220072;28;20194;-58
2022/06/02 11:30:27;;;;;;;2.35;2.10;;;23.90;72.10;;;24.86;35.56;98112.00;5219052;28;20224;-58
2022/06/02 11:33:53;;;;;;;3.58;2.10;;;24.20;68.40;;;24.91;34.25;98110.31;5217819;28;20226;-56
2022/06/02 11:37:17;;;;;;;2.25;2.05;;;24.20;68.10;;;24.98;34.01;98111.22;5205473;28;20229;-57
2022/06/02 11:40:15;;;;;;;2.85;1.77;;;24.20;67.40;;;24.91;34.32;98114.66;5222067;28;20236;-58
2022/06/02 11:43:14;;;;;;;2.28;2.03;;;24.10;67.00;;;24.89;34.21;98109.41;5218932;28;20225;-55
2022/06/02 11:46:43;;;;;;;2.15;2.05;;;24.10;66.80;;;25.12;33.95;98112.13;5219210;28;20212;-55
2022/06/02 11:50:01;;;;;;;2.63;2.05;;;24.30;66.90;;;25.00;34.48;98099.00;5224033;28;20574;-50
2022/06/02 11:53:17;;;;;;;2.72;2.47;;;24.30;66.60;;;25.20;34.08;98101.72;5223576;28;20239;-57
2022/06/02 11:55:55;;;;;;;2.38;2.10;;;24.40;66.90;;;25.32;34.33;98091.25;5218234;28;20234;-58
2022/06/02 11:59:15;;;;;;;2.85;2.20;;;24.50;67.40;;;25.49;33.61;98087.81;5219949;28;20240;-55
2022/06/02 12:02:45;;;;;;;2.40;2.00;;;24.70;67.20;;;25.59;33.65;98090.44;5217914;28;20247;-58
2022/06/02 12:05:41;;;;;;;2.45;1.98;;;24.70;67.00;;;25.61;33.38;98088.72;5219718;28;20196;-56
2022/06/02 12:09:07;;;;;;;2.47;2.28;;;24.60;67.00;;;25.64;34.35;98082.59;5218435;28;20229;-57
2022/06/02 12:11:55;;;;;;;2.15;1.90;;;24.70;68.40;;;25.96;33.36;98077.41;5220454;28;20221;-58
2022/06/02 12:15:08;;;;;;;1.73;1.63;;;25.00;66.50;;;26.00;33.18;98086.97;5221531;28;20224;-57
2022/06/02 12:18:08;;;;;;;2.58;2.10;;;25.00;66.40;;;26.27;33.26;98083.47;5206320;28;20245;-57
2022/06/02 12:21:08;;;;;;;2.40;2.20;;;25.30;66.20;;;26.43;31.62;98097.41;5218249;28;20658;-55
2022/06/02 12:24:14;;;;;;;2.38;2.20;;;25.40;64.80;;;26.19;32.55;98093.09;5208084;28;20707;-57
2022/06/02 12:27:16;;;;;;;2.20;2.10;;;25.20;65.30;;;25.98;33.13;98083.50;5221813;28;20232;-57
2022/06/02 12:30:09;;;;;;;3.47;2.00;;;24.90;66.10;;;25.90;33.84;98084.34;5216545;28;20283;-56
2022/06/02 12:33:29;;;;;;;2.75;2.03;;;24.80;67.80;;;26.07;33.60;98082.63;5217383;28;20786;-54